createdAt,value
2022-10-09T00:02:44.236Z,10.57
2022-10-09T00:05:30.376Z,11.40
2022-10-09T00:08:16.409Z,10.63
2022-10-09T00:11:06.124Z,10.57
2022-10-09T00:13:52.320Z,10.73
2022-10-09T00:16:38.768Z,11.70
2022-10-09T00:19:24.739Z,11.40
2022-10-09T00:22:10.707Z,11.90
2022-10-09T00:24:56.583Z,10.80
2022-10-09T00:27:42.541Z,11.00
2022-10-09T00:30:28.939Z,11.17
2022-10-09T00:33:15.053Z,11.10
2022-10-09T00:36:02.941Z,11.77
2022-10-09T00:38:50.140Z,11.07
2022-10-09T00:41:36.416Z,11.63
2022-10-09T00:44:41.016Z,11.10
2022-10-09T00:47:32.861Z,12.67
2022-10-09T00:50:22.337Z,11.50
2022-10-09T00:53:08.879Z,11.87
2022-10-09T00:55:55.004Z,12.13
2022-10-09T00:58:41.055Z,11.73
2022-10-09T01:01:27.405Z,12.27
2022-10-09T01:04:13.691Z,11.63
2022-10-09T01:07:11.718Z,12.83
2022-10-09T01:10:22.105Z,12.27
2022-10-09T01:13:37.566Z,11.40
2022-10-09T01:16:28.872Z,11.07
2022-10-09T01:19:33.926Z,11.43
2022-10-09T01:22:38.797Z,11.77
2022-10-09T01:25:32.284Z,11.73
2022-10-09T01:28:19.909Z,11.37
2022-10-09T01:31:07.055Z,11.80
2022-10-09T01:33:53.024Z,11.60
2022-10-09T01:36:39.943Z,10.47
2022-10-09T01:39:26.114Z,11.30
2022-10-09T01:42:13.713Z,11.20
2022-10-09T01:45:00.185Z,11.47
2022-10-09T01:47:46.389Z,11.83
2022-10-09T01:50:34.713Z,10.97
2022-10-09T01:53:21.542Z,10.43
2022-10-09T01:56:13.484Z,10.53
2022-10-09T01:59:01.668Z,12.87
2022-10-09T02:01:48.168Z,9.87
2022-10-09T02:04:34.649Z,10.30
2022-10-09T02:07:21.094Z,10.80
2022-10-09T02:10:08.737Z,10.33
2022-10-09T02:12:56.625Z,10.87
2022-10-09T02:16:01.328Z,9.47
2022-10-09T02:18:49.281Z,11.07
2022-10-09T02:21:56.986Z,10.60
2022-10-09T02:24:43.129Z,10.20
2022-10-09T02:27:29.653Z,9.83
2022-10-09T02:30:16.318Z,10.13
2022-10-09T02:33:02.263Z,10.07
2022-10-09T02:35:48.335Z,10.87
2022-10-09T02:38:34.304Z,11.10
2022-10-09T02:41:20.207Z,9.87
2022-10-09T02:44:06.371Z,9.87
2022-10-09T02:46:52.392Z,10.77
2022-10-09T02:49:38.185Z,9.40
2022-10-09T02:52:24.155Z,9.60
2022-10-09T02:55:10.180Z,10.43
2022-10-09T02:57:55.891Z,9.60
2022-10-09T03:00:41.934Z,11.20
2022-10-09T03:03:28.018Z,10.57
2022-10-09T03:06:15.129Z,10.30
2022-10-09T03:09:00.852Z,10.27
2022-10-09T03:11:46.443Z,9.57
2022-10-09T03:14:32.119Z,9.57
2022-10-09T03:17:17.627Z,9.87
2022-10-09T03:20:03.357Z,10.17
2022-10-09T03:22:49.230Z,9.00
2022-10-09T03:25:35.009Z,9.70
2022-10-09T03:28:20.631Z,9.73
2022-10-09T03:31:06.809Z,9.33
2022-10-09T03:33:52.808Z,8.80
2022-10-09T03:36:38.467Z,8.97
2022-10-09T03:39:23.983Z,9.17
2022-10-09T03:42:09.564Z,9.20
2022-10-09T03:44:55.469Z,9.60
2022-10-09T03:47:42.197Z,8.70
2022-10-09T03:50:28.065Z,9.30
2022-10-09T03:53:14.304Z,9.07
2022-10-09T03:56:00.228Z,9.20
2022-10-09T03:58:45.740Z,9.13
2022-10-09T04:01:31.936Z,9.20
2022-10-09T04:04:17.575Z,9.20
2022-10-09T04:07:03.447Z,8.97
2022-10-09T04:09:49.182Z,9.23
2022-10-09T04:12:35.164Z,9.87
2022-10-09T04:15:20.893Z,9.47
2022-10-09T04:18:06.693Z,9.23
2022-10-09T04:20:53.050Z,8.90
2022-10-09T04:23:39.440Z,8.83
2022-10-09T04:26:25.526Z,9.70
2022-10-09T04:29:11.695Z,8.03
2022-10-09T04:31:57.516Z,8.00
2022-10-09T04:34:43.495Z,8.43
2022-10-09T04:37:29.460Z,8.30
2022-10-09T04:40:14.904Z,9.07
2022-10-09T04:43:00.727Z,7.70
2022-10-09T04:45:46.621Z,8.57
2022-10-09T04:48:32.376Z,9.23
2022-10-09T04:51:18.575Z,9.47
2022-10-09T04:54:05.486Z,9.03
2022-10-09T04:56:51.142Z,9.40
2022-10-09T04:59:37.030Z,8.77
2022-10-09T05:02:22.492Z,8.83
2022-10-09T05:05:08.741Z,8.87
2022-10-09T05:07:54.449Z,8.53
2022-10-09T05:10:40.248Z,9.03
2022-10-09T05:13:25.933Z,9.07
2022-10-09T05:16:12.827Z,8.90
2022-10-09T05:19:00.389Z,8.90
2022-10-09T05:21:46.490Z,9.10
2022-10-09T05:24:32.287Z,9.67
2022-10-09T05:27:18.110Z,9.00
2022-10-09T05:30:03.681Z,8.93
2022-10-09T05:32:49.298Z,10.30
2022-10-09T05:35:35.123Z,9.20
2022-10-09T05:38:20.930Z,9.37
2022-10-09T05:41:07.120Z,9.47
2022-10-09T05:43:52.686Z,9.67
2022-10-09T05:46:38.173Z,9.17
2022-10-09T05:49:24.067Z,9.70
2022-10-09T05:52:09.827Z,9.40
2022-10-09T05:54:57.066Z,8.67
2022-10-09T05:57:42.788Z,8.70
2022-10-09T06:00:28.926Z,8.80
2022-10-09T06:03:14.635Z,8.40
2022-10-09T06:06:04.858Z,8.83
2022-10-09T06:08:50.822Z,9.23
2022-10-09T06:11:37.261Z,9.20
2022-10-09T06:14:24.397Z,8.33
2022-10-09T06:17:09.830Z,8.83
2022-10-09T06:19:55.490Z,9.43
2022-10-09T06:22:41.480Z,8.27
2022-10-09T06:25:27.014Z,10.07
2022-10-09T06:28:12.685Z,12.37
2022-10-09T06:31:05.790Z,8.80
2022-10-09T06:33:51.918Z,9.80
2022-10-09T06:36:37.823Z,9.17
2022-10-09T06:39:23.916Z,9.77
2022-10-09T06:42:09.713Z,9.27
2022-10-09T06:45:09.561Z,9.13
2022-10-09T06:47:55.439Z,9.67
2022-10-09T06:50:41.194Z,9.80
2022-10-09T06:53:27.097Z,10.43
2022-10-09T06:56:13.303Z,8.70
2022-10-09T06:59:06.336Z,10.30
2022-10-09T07:01:52.026Z,9.63
2022-10-09T07:04:38.461Z,10.63
2022-10-09T07:07:24.141Z,10.10
2022-10-09T07:10:10.253Z,9.40
2022-10-09T07:12:56.040Z,9.20
2022-10-09T07:15:45.940Z,9.27
2022-10-09T07:18:32.892Z,8.63
2022-10-09T07:21:19.497Z,8.73
2022-10-09T07:24:05.575Z,8.53
2022-10-09T07:26:51.548Z,8.10
2022-10-09T07:29:37.476Z,7.33
2022-10-09T07:32:24.723Z,8.73
2022-10-09T07:35:11.613Z,7.90
2022-10-09T07:37:57.363Z,7.87
2022-10-09T07:40:43.139Z,7.30
2022-10-09T07:43:29.352Z,8.37
2022-10-09T07:46:16.486Z,7.03
2022-10-09T07:49:02.937Z,8.17
2022-10-09T07:51:48.787Z,7.30
2022-10-09T07:54:34.732Z,8.40
2022-10-09T07:57:20.529Z,6.93
2022-10-09T08:00:06.519Z,7.30
2022-10-09T08:02:57.823Z,6.80
2022-10-09T08:05:43.380Z,6.47
2022-10-09T08:08:30.148Z,6.77
2022-10-09T08:11:16.654Z,6.50
2022-10-09T08:14:02.498Z,6.47
2022-10-09T08:16:48.716Z,5.83
2022-10-09T08:19:34.344Z,6.30
2022-10-09T08:22:20.192Z,7.00
2022-10-09T08:25:06.517Z,7.33
2022-10-09T08:27:55.485Z,7.07
2022-10-09T08:30:41.331Z,6.77
2022-10-09T08:33:27.080Z,6.37
2022-10-09T08:36:16.741Z,6.17
2022-10-09T08:39:02.351Z,5.60
2022-10-09T08:41:49.753Z,7.50
2022-10-09T08:44:39.424Z,7.40
2022-10-09T08:47:34.566Z,16.30
2022-10-09T08:50:23.823Z,5.67
2022-10-09T08:53:09.402Z,6.20
2022-10-09T08:55:55.171Z,6.00
2022-10-09T08:58:41.578Z,5.30
2022-10-09T09:01:33.765Z,5.60
2022-10-09T09:04:22.648Z,5.63
2022-10-09T09:07:11.593Z,7.60
2022-10-09T09:09:57.848Z,5.20
2022-10-09T09:12:54.073Z,5.10
2022-10-09T09:15:45.331Z,5.40
2022-10-09T09:18:42.952Z,5.13
2022-10-09T09:21:38.456Z,5.63
2022-10-09T09:24:39.907Z,5.60
2022-10-09T09:27:30.895Z,5.83
2022-10-09T09:30:18.969Z,5.60
2022-10-09T09:33:33.848Z,4.70
2022-10-09T09:36:24.474Z,5.50
2022-10-09T09:42:21.033Z,5.60
2022-10-09T09:45:14.421Z,4.20
2022-10-09T09:48:06.752Z,5.30
2022-10-09T09:51:10.295Z,4.97
2022-10-09T09:54:00.917Z,5.27
2022-10-09T09:57:20.992Z,4.40
2022-10-09T09:59:53.480Z,4.47
2022-10-09T10:02:39.255Z,5.27
2022-10-09T10:05:27.245Z,5.87
2022-10-09T10:08:24.411Z,5.23
2022-10-09T10:11:17.728Z,4.03
2022-10-09T10:14:07.758Z,4.83
2022-10-09T10:16:54.322Z,4.90
2022-10-09T10:19:40.738Z,4.97
2022-10-09T10:22:28.017Z,4.20
2022-10-09T10:25:16.364Z,4.43
2022-10-09T10:28:11.682Z,4.07
2022-10-09T10:30:59.377Z,4.30
2022-10-09T10:33:51.181Z,7.50
2022-10-09T10:36:36.920Z,5.77
2022-10-09T10:39:27.549Z,5.90
2022-10-09T10:42:17.595Z,4.07
2022-10-09T10:45:17.924Z,4.60
2022-10-09T10:48:04.255Z,4.30
2022-10-09T10:51:03.112Z,4.13
2022-10-09T10:54:08.605Z,4.10
2022-10-09T10:57:04.647Z,4.13
2022-10-09T10:59:54.074Z,3.70
2022-10-09T11:02:58.004Z,4.37
2022-10-09T11:05:47.402Z,4.50
2022-10-09T11:08:57.658Z,4.30
2022-10-09T11:11:43.191Z,4.67
2022-10-09T11:14:44.543Z,4.17
2022-10-09T11:17:52.537Z,4.10
2022-10-09T11:20:53.801Z,3.80
2022-10-09T11:23:49.748Z,4.20
2022-10-09T11:26:42.025Z,4.00
2022-10-09T11:29:33.270Z,3.73
2022-10-09T11:32:24.439Z,3.33
2022-10-09T11:35:16.376Z,4.37
2022-10-09T11:38:04.756Z,3.50
2022-10-09T11:40:50.775Z,4.20
2022-10-09T11:43:54.128Z,3.70
2022-10-09T11:47:01.596Z,3.63
2022-10-09T11:49:47.843Z,4.47
2022-10-09T11:52:52.397Z,3.80
2022-10-09T11:55:39.743Z,4.10
2022-10-09T11:58:26.155Z,3.77
2022-10-09T12:01:17.186Z,3.37
2022-10-09T12:04:09.203Z,3.43
2022-10-09T12:06:57.419Z,4.77
2022-10-09T12:09:45.216Z,8.43
2022-10-09T12:12:31.458Z,4.93
2022-10-09T12:15:26.596Z,3.50
2022-10-09T12:18:32.601Z,4.47
2022-10-09T12:21:27.084Z,3.80
2022-10-09T12:24:17.656Z,3.40
2022-10-09T12:27:04.298Z,4.60
2022-10-09T12:29:56.811Z,4.93
2022-10-09T12:32:45.224Z,13.50
2022-10-09T12:35:41.990Z,4.60
2022-10-09T12:38:31.253Z,3.77
2022-10-09T12:41:22.040Z,3.37
2022-10-09T12:44:12.325Z,3.63
2022-10-09T12:47:07.225Z,2.90
2022-10-09T12:50:04.781Z,3.00
2022-10-09T12:53:17.071Z,2.90
2022-10-09T12:56:03.452Z,3.00
2022-10-09T12:58:49.934Z,2.67
2022-10-09T13:01:36.069Z,3.00
2022-10-09T13:04:31.713Z,2.53
2022-10-09T13:07:20.420Z,2.90
2022-10-09T13:10:17.775Z,2.77
2022-10-09T13:13:05.448Z,3.30
2022-10-09T13:16:06.913Z,2.53
2022-10-09T13:19:04.396Z,2.53
2022-10-09T13:22:01.188Z,2.97
2022-10-09T13:24:50.520Z,3.20
2022-10-09T13:27:39.339Z,2.30
2022-10-09T13:30:25.230Z,2.67
2022-10-09T13:33:14.219Z,2.20
2022-10-09T13:36:00.219Z,2.13
2022-10-09T13:38:46.947Z,2.33
2022-10-09T13:41:34.301Z,2.40
2022-10-09T13:44:20.222Z,2.70
2022-10-09T13:47:06.026Z,3.07
2022-10-09T13:49:52.225Z,5.77
2022-10-09T13:55:25.643Z,2.90
2022-10-09T13:58:13.107Z,3.13
2022-10-09T14:00:59.193Z,2.90
2022-10-09T14:03:45.215Z,2.40
2022-10-09T14:06:31.074Z,3.10
2022-10-09T14:09:16.916Z,5.10
2022-10-09T14:12:04.029Z,3.27
2022-10-09T14:14:49.960Z,2.90
2022-10-09T14:17:35.890Z,2.60
2022-10-09T14:20:27.367Z,5.43
2022-10-09T14:23:16.084Z,3.10
2022-10-09T14:26:07.386Z,4.17
2022-10-09T14:28:53.879Z,3.27
2022-10-09T14:31:39.588Z,9.43
2022-10-09T14:34:25.382Z,6.00
2022-10-09T14:37:23.910Z,5.20
2022-10-09T14:40:17.193Z,2.93
2022-10-09T14:43:02.949Z,3.20
2022-10-09T14:45:48.795Z,3.63
2022-10-09T14:48:35.428Z,4.07
2022-10-09T14:51:21.917Z,5.20
2022-10-09T14:54:08.703Z,4.03
2022-10-09T14:56:54.467Z,2.60
2022-10-09T14:59:40.119Z,3.80
2022-10-09T15:02:26.074Z,2.90
2022-10-09T15:05:11.775Z,3.47
2022-10-09T15:07:57.368Z,2.80
2022-10-09T15:10:43.376Z,2.83
2022-10-09T15:13:30.278Z,5.33
2022-10-09T15:16:17.124Z,5.63
2022-10-09T15:19:03.849Z,3.73
2022-10-09T15:21:50.530Z,3.00
2022-10-09T15:24:36.190Z,4.20
2022-10-09T15:27:22.031Z,6.00
2022-10-09T15:30:08.328Z,4.03
2022-10-09T15:32:56.463Z,10.07
2022-10-09T15:35:43.255Z,3.03
2022-10-09T15:38:29.127Z,2.60
2022-10-09T15:41:22.558Z,2.57
2022-10-09T15:44:09.632Z,3.10
2022-10-09T15:46:56.338Z,2.70
2022-10-09T15:49:51.303Z,3.13
2022-10-09T15:52:39.055Z,2.80
2022-10-09T15:55:24.971Z,3.80
2022-10-09T15:58:10.835Z,3.00
2022-10-09T16:00:56.569Z,4.00
2022-10-09T16:03:43.731Z,3.30
2022-10-09T16:06:30.720Z,3.20
2022-10-09T16:09:17.245Z,3.87
2022-10-09T16:12:03.453Z,5.10
2022-10-09T16:14:49.161Z,4.30
2022-10-09T16:17:35.618Z,4.00
2022-10-09T16:20:22.137Z,3.50
2022-10-09T16:23:08.843Z,3.70
2022-10-09T16:25:58.690Z,4.27
2022-10-09T16:28:46.685Z,4.33
2022-10-09T16:31:36.383Z,6.70
2022-10-09T16:34:22.097Z,4.10
2022-10-09T16:37:07.762Z,4.63
2022-10-09T16:39:53.670Z,4.10
2022-10-09T16:42:40.001Z,5.03
2022-10-09T16:45:25.747Z,6.40
2022-10-09T16:48:11.562Z,7.77
2022-10-09T16:50:58.464Z,6.60
2022-10-09T16:53:44.732Z,4.97
2022-10-09T16:56:33.056Z,4.00
2022-10-09T16:59:18.648Z,6.87
2022-10-09T17:02:05.895Z,5.17
2022-10-09T17:04:53.972Z,5.50
2022-10-09T17:07:39.762Z,5.37
2022-10-09T17:10:27.838Z,5.00
2022-10-09T17:13:13.892Z,4.40
2022-10-09T17:16:00.945Z,5.80
2022-10-09T17:18:47.717Z,5.87
2022-10-09T17:21:34.697Z,4.57
2022-10-09T17:24:21.364Z,5.63
2022-10-09T17:27:09.786Z,4.37
2022-10-09T17:29:55.792Z,6.20
2022-10-09T17:32:43.196Z,4.60
2022-10-09T17:35:28.604Z,4.17
2022-10-09T17:38:14.595Z,4.83
2022-10-09T17:41:00.417Z,4.73
2022-10-09T17:43:47.054Z,5.30
2022-10-09T17:46:33.362Z,4.93
2022-10-09T17:49:19.687Z,5.70
2022-10-09T17:52:05.349Z,5.83
2022-10-09T17:54:51.437Z,5.13
2022-10-09T17:57:37.269Z,5.30
2022-10-09T18:00:23.165Z,6.20
2022-10-09T18:03:09.188Z,7.20
2022-10-09T18:05:54.976Z,6.00
2022-10-09T18:08:44.064Z,5.63
2022-10-09T18:11:30.374Z,5.90
2022-10-09T18:14:15.950Z,5.10
2022-10-09T18:17:02.549Z,5.57
2022-10-09T18:19:51.388Z,5.87
2022-10-09T18:22:37.583Z,6.70
2022-10-09T18:25:23.437Z,7.77
2022-10-09T18:28:09.720Z,5.80
2022-10-09T18:30:56.027Z,7.10
2022-10-09T18:33:41.800Z,5.10
2022-10-09T18:36:31.549Z,5.90
2022-10-09T18:39:18.196Z,5.70
2022-10-09T18:42:04.856Z,6.50
2022-10-09T18:44:50.886Z,6.03
2022-10-09T18:47:36.722Z,6.30
2022-10-09T18:50:23.378Z,5.20
2022-10-09T18:53:09.419Z,6.00
2022-10-09T18:55:55.380Z,5.90
2022-10-09T18:58:42.546Z,6.17
2022-10-09T19:01:31.665Z,6.90
2022-10-09T19:04:18.845Z,6.20
2022-10-09T19:07:06.496Z,6.33
2022-10-09T19:09:56.984Z,5.50
2022-10-09T19:12:43.608Z,5.67
2022-10-09T19:15:29.439Z,8.43
2022-10-09T19:18:15.149Z,6.27
2022-10-09T19:21:01.500Z,6.40
2022-10-09T19:23:48.474Z,6.47
2022-10-09T19:26:35.207Z,6.97
2022-10-09T19:29:21.061Z,6.43
2022-10-09T19:32:06.918Z,6.67
2022-10-09T19:34:52.963Z,6.60
2022-10-09T19:37:38.926Z,6.30
2022-10-09T19:40:24.783Z,6.50
2022-10-09T19:43:11.082Z,6.60
2022-10-09T19:46:04.454Z,6.50
2022-10-09T19:48:50.982Z,6.87
2022-10-09T19:51:37.068Z,6.20
2022-10-09T19:54:22.791Z,7.00
2022-10-09T19:57:08.357Z,6.07
2022-10-09T19:59:54.764Z,6.00
2022-10-09T20:02:40.779Z,5.87
2022-10-09T20:05:26.899Z,6.03
2022-10-09T20:08:12.858Z,6.30
2022-10-09T20:11:02.866Z,6.03
2022-10-09T20:13:55.501Z,6.60
2022-10-09T20:16:41.635Z,6.80
2022-10-09T20:19:30.800Z,5.70
2022-10-09T20:22:17.747Z,6.77
2022-10-09T20:25:08.103Z,6.80
2022-10-09T20:27:54.684Z,6.53
2022-10-09T20:30:40.544Z,6.47
2022-10-09T20:33:26.182Z,6.20
2022-10-09T20:36:26.182Z,6.20
2022-10-09T20:39:13.628Z,6.80
2022-10-09T20:41:59.284Z,6.20
2022-10-09T20:44:45.357Z,6.57
2022-10-09T20:47:32.497Z,6.63
2022-10-09T20:50:18.447Z,6.27
2022-10-09T20:53:05.294Z,6.50
2022-10-09T20:55:51.596Z,6.60
2022-10-09T20:58:37.669Z,6.90
2022-10-09T21:01:24.200Z,6.30
2022-10-09T21:04:11.554Z,6.80
2022-10-09T21:06:57.289Z,6.57
2022-10-09T21:09:44.298Z,6.40
2022-10-09T21:12:30.036Z,6.40
2022-10-09T21:15:15.904Z,6.60
2022-10-09T21:18:03.064Z,7.37
2022-10-09T21:20:49.499Z,7.10
2022-10-09T21:23:38.817Z,6.60
2022-10-09T21:26:25.351Z,6.50
2022-10-09T21:29:11.523Z,6.70
2022-10-09T21:31:57.416Z,6.37
2022-10-09T21:34:43.142Z,7.07
2022-10-09T21:37:29.027Z,7.40
2022-10-09T21:40:14.852Z,7.57
2022-10-09T21:43:00.665Z,6.80
2022-10-09T21:45:50.490Z,6.80
2022-10-09T21:48:36.207Z,6.10
2022-10-09T21:51:22.876Z,6.83
2022-10-09T21:54:08.559Z,6.70
2022-10-09T21:56:55.452Z,6.90
2022-10-09T21:59:41.366Z,7.20
2022-10-09T22:02:27.835Z,6.63
2022-10-09T22:05:15.704Z,7.20
2022-10-09T22:08:01.739Z,6.23
2022-10-09T22:10:47.870Z,6.37
2022-10-09T22:13:33.903Z,6.90
2022-10-09T22:16:19.504Z,7.27
2022-10-09T22:19:05.390Z,7.37
2022-10-09T22:21:51.112Z,6.30
2022-10-09T22:24:36.929Z,7.10
2022-10-09T22:27:23.068Z,6.63
2022-10-09T22:30:10.249Z,6.70
2022-10-09T22:32:56.136Z,6.17
2022-10-09T22:35:45.564Z,6.10
2022-10-09T22:38:31.563Z,7.97
2022-10-09T22:41:18.522Z,7.13
2022-10-09T22:44:06.055Z,6.23
2022-10-09T22:46:52.221Z,6.30
2022-10-09T22:49:38.195Z,6.00
2022-10-09T22:52:24.825Z,6.87
2022-10-09T22:55:10.515Z,6.50
2022-10-09T22:57:56.603Z,6.57
2022-10-09T23:00:42.491Z,5.93
2022-10-09T23:03:28.293Z,6.27
2022-10-09T23:06:16.816Z,6.30
2022-10-09T23:09:04.327Z,5.63
2022-10-09T23:11:50.625Z,5.70
2022-10-09T23:14:37.770Z,6.03
2022-10-09T23:17:23.924Z,6.20
2022-10-09T23:20:10.783Z,5.70
2022-10-09T23:22:56.801Z,6.30
2022-10-09T23:25:43.048Z,6.63
2022-10-09T23:28:29.110Z,5.40
2022-10-09T23:31:15.599Z,6.10
2022-10-09T23:34:01.092Z,5.50
2022-10-09T23:36:47.331Z,5.63
2022-10-09T23:39:32.894Z,6.17
2022-10-09T23:42:19.136Z,5.90
2022-10-09T23:45:07.561Z,6.20
2022-10-09T23:47:53.164Z,6.60
2022-10-09T23:50:39.036Z,5.73
2022-10-09T23:53:26.678Z,6.37
2022-10-09T23:56:15.499Z,6.37
2022-10-09T23:59:02.592Z,5.70
